Time,TemperatureF,DewpointF,PressureIn,WindDirection,WindDirectionDegrees,WindSpeedMPH,WindSpeedGustMPH,Humidity,HourlyPrecipIn,Conditions,Clouds,dailyrainin,SoftwareType,DateUTC
2013-06-13 06:34:00,72.6,71.7,29.75,South,173,0.0,0.0,97,0.00,,,0.00,Wunderground v.1.15,2013-06-13 10:34:00,
2013-06-13 06:35:00,72.6,71.7,29.75,South,174,0.0,0.0,97,0.00,,,0.00,Wunderground v.1.15,2013-06-13 10:35:00,
2013-06-13 06:38:00,72.6,71.7,29.76,South,173,0.0,0.0,97,0.00,,,0.00,Wunderground v.1.15,2013-06-13 10:38:00,
2013-06-13 06:39:00,72.6,71.7,29.76,South,173,0.0,0.0,97,0.00,,,0.00,Wunderground v.1.15,2013-06-13 10:39:00,
2013-06-13 06:43:00,72.5,71.6,29.76,South,173,0.0,0.0,97,0.00,,,0.00,Wunderground v.1.15,2013-06-13 10:43:00,
2013-06-13 06:44:00,72.5,71.6,29.76,South,173,0.0,0.0,97,0.00,,,0.00,Wunderground v.1.15,2013-06-13 10:44:00,
2013-06-13 06:45:00,72.5,71.6,29.76,South,173,0.0,0.0,97,0.00,,,0.00,Wunderground v.1.15,2013-06-13 10:45:00,
2013-06-13 06:46:00,72.5,71.6,29.76,South,173,0.0,0.0,97,0.00,,,0.00,Wunderground v.1.15,2013-06-13 10:46:00,
2013-06-13 06:49:00,72.6,71.7,29.76,South,173,0.0,0.0,97,0.00,,,0.00,Wunderground v.1.15,2013-06-13 10:49:00,
2013-06-13 06:52:00,72.5,71.6,29.76,South,173,0.0,0.0,97,0.00,,,0.00,Wunderground v.1.15,2013-06-13 10:52:00,
2013-06-13 06:53:00,72.5,71.6,29.76,South,173,0.0,0.0,97,0.00,,,0.00,Wunderground v.1.15,2013-06-13 10:53:00,
2013-06-13 06:54:00,72.5,71.6,29.76,South,173,0.0,0.0,97,0.00,,,0.00,Wunderground v.1.15,2013-06-13 10:54:00,
2013-06-13 06:55:00,72.5,71.6,29.76,South,173,0.0,0.0,97,0.00,,,0.00,Wunderground v.1.15,2013-06-13 10:55:00,
2013-06-13 06:56:00,72.5,71.6,29.76,South,173,0.0,0.0,97,0.00,,,0.00,Wunderground v.1.15,2013-06-13 10:56:00,
2013-06-13 07:00:00,72.6,71.7,29.77,South,173,0.0,0.0,97,0.00,,,0.00,Wunderground v.1.15,2013-06-13 11:00:00,
2013-06-13 07:01:00,72.6,71.7,29.77,South,173,0.0,0.0,97,0.00,,,0.00,Wunderground v.1.15,2013-06-13 11:01:00,
2013-06-13 07:02:00,72.6,71.7,29.77,South,173,0.0,0.0,97,0.00,,,0.00,Wunderground v.1.15,2013-06-13 11:02:00,
2013-06-13 07:03:00,72.6,71.7,29.77,South,173,0.0,0.0,97,0.00,,,0.00,Wunderground v.1.15,2013-06-13 11:03:00,
2013-06-13 07:05:00,72.7,71.8,29.77,South,173,0.0,0.0,97,0.00,,,0.00,Wunderground v.1.15,2013-06-13 11:05:00,
2013-06-13 07:07:00,72.7,71.8,29.76,South,173,0.0,0.0,97,0.00,,,0.00,Wunderground v.1.15,2013-06-13 11:07:00,
2013-06-13 07:08:00,72.7,71.8,29.76,South,174,0.0,0.0,97,0.00,,,0.00,Wunderground v.1.15,2013-06-13 11:08:00,
2013-06-13 07:10:00,72.9,72.0,29.76,South,173,0.0,0.0,97,0.00,,,0.00,Wunderground v.1.15,2013-06-13 11:10:00,
2013-06-13 07:11:00,73.0,72.1,29.76,South,173,0.0,0.0,97,0.00,,,0.00,Wunderground v.1.15,2013-06-13 11:11:00,
2013-06-13 07:12:00,73.1,72.2,29.76,South,173,0.0,0.0,97,0.00,,,0.00,Wunderground v.1.15,2013-06-13 11:12:00,
2013-06-13 07:14:00,73.1,72.2,29.76,South,173,0.0,0.0,97,0.00,,,0.00,Wunderground v.1.15,2013-06-13 11:14:00,
2013-06-13 07:15:00,73.2,72.3,29.76,South,173,0.0,0.0,97,0.00,,,0.00,Wunderground v.1.15,2013-06-13 11:15:00,
2013-06-13 07:17:00,73.3,72.4,29.76,South,173,0.0,0.0,97,0.00,,,0.00,Wunderground v.1.15,2013-06-13 11:17:00,
2013-06-13 07:19:00,73.3,72.4,29.76,South,173,0.0,0.0,97,0.00,,,0.00,Wunderground v.1.15,2013-06-13 11:19:00,
2013-06-13 07:21:00,73.3,72.4,29.76,South,174,0.0,0.0,97,0.00,,,0.00,Wunderground v.1.15,2013-06-13 11:21:00,
2013-06-13 07:22:00,73.4,72.5,29.76,South,173,0.0,0.0,97,0.00,,,0.00,Wunderground v.1.15,2013-06-13 11:22:00,
2013-06-13 07:24:00,73.5,72.6,29.76,South,173,0.0,0.0,97,0.00,,,0.00,Wunderground v.1.15,2013-06-13 11:24:00,
2013-06-13 07:25:00,73.5,72.6,29.76,South,173,0.0,0.0,97,0.00,,,0.00,Wunderground v.1.15,2013-06-13 11:25:00,
2013-06-13 07:27:00,73.5,72.6,29.76,South,173,0.0,0.0,97,0.00,,,0.00,Wunderground v.1.15,2013-06-13 11:27:00,
2013-06-13 07:28:00,73.6,72.7,29.76,South,173,0.0,0.0,97,0.00,,,0.00,Wunderground v.1.15,2013-06-13 11:28:00,
2013-06-13 07:29:00,73.6,72.7,29.77,South,173,0.0,0.0,97,0.00,,,0.00,Wunderground v.1.15,2013-06-13 11:29:00,
2013-06-13 07:30:00,73.6,72.7,29.77,South,173,0.0,0.0,97,0.00,,,0.00,Wunderground v.1.15,2013-06-13 11:30:00,
2013-06-13 07:35:00,73.9,73.0,29.77,South,173,0.0,0.0,97,0.00,,,0.00,Wunderground v.1.15,2013-06-13 11:35:00,
2013-06-13 07:36:00,73.9,73.0,29.77,South,174,0.0,0.0,97,0.00,,,0.00,Wunderground v.1.15,2013-06-13 11:36:00,
2013-06-13 07:39:00,74.0,73.1,29.76,South,173,0.0,0.0,97,0.00,,,0.00,Wunderground v.1.15,2013-06-13 11:39:00,
2013-06-13 07:41:00,74.1,73.2,29.76,South,173,0.0,0.0,97,0.00,,,0.00,Wunderground v.1.15,2013-06-13 11:41:00,
2013-06-13 07:42:00,74.2,73.3,29.76,South,173,0.0,0.0,97,0.00,,,0.00,Wunderground v.1.15,2013-06-13 11:42:00,
2013-06-13 07:43:00,74.3,73.4,29.76,South,173,0.0,0.0,97,0.00,,,0.00,Wunderground v.1.15,2013-06-13 11:43:00,
2013-06-13 07:47:00,74.4,73.8,29.76,South,173,0.0,0.0,98,0.00,,,0.00,Wunderground v.1.15,2013-06-13 11:47:00,
2013-06-13 07:48:00,74.5,73.9,29.76,South,173,0.0,0.0,98,0.00,,,0.00,Wunderground v.1.15,2013-06-13 11:48:00,
2013-06-13 07:50:00,74.5,73.9,29.76,South,173,0.0,0.0,98,0.00,,,0.00,Wunderground v.1.15,2013-06-13 11:50:00,
2013-06-13 07:51:00,74.6,73.7,29.76,South,173,0.0,0.0,97,0.00,,,0.00,Wunderground v.1.15,2013-06-13 11:51:00,
2013-06-13 07:53:00,74.7,74.1,29.76,South,173,0.0,0.0,98,0.00,,,0.00,Wunderground v.1.15,2013-06-13 11:53:00,
2013-06-13 07:54:00,74.7,74.1,29.76,South,173,0.0,0.0,98,0.00,,,0.00,Wunderground v.1.15,2013-06-13 11:54:00,
2013-06-13 07:56:00,74.8,73.9,29.76,South,174,0.0,0.0,97,0.00,,,0.00,Wunderground v.1.15,2013-06-13 11:56:00,
2013-06-13 07:57:00,74.9,74.0,29.76,South,173,0.0,0.0,97,0.00,,,0.00,Wunderground v.1.15,2013-06-13 11:57:00,
2013-06-13 07:59:00,74.9,74.3,29.76,South,173,0.0,0.0,98,0.00,,,0.00,Wunderground v.1.15,2013-06-13 11:59:00,
2013-06-13 08:01:00,75.0,74.1,29.76,South,174,0.0,0.0,97,0.00,,,0.00,Wunderground v.1.15,2013-06-13 12:01:00,
2013-06-13 08:04:00,75.2,74.3,29.76,South,173,0.0,0.0,97,0.00,,,0.00,Wunderground v.1.15,2013-06-13 12:04:00,
2013-06-13 08:06:00,75.3,74.4,29.76,South,174,0.0,0.0,97,0.00,,,0.00,Wunderground v.1.15,2013-06-13 12:06:00,
2013-06-13 08:07:00,75.4,74.5,29.76,South,173,0.0,0.0,97,0.00,,,0.00,Wunderground v.1.15,2013-06-13 12:07:00,
2013-06-13 08:09:00,75.5,74.6,29.76,South,173,0.0,0.0,97,0.00,,,0.00,Wunderground v.1.15,2013-06-13 12:09:00,
2013-06-13 08:10:00,75.6,74.7,29.76,South,174,0.0,0.0,97,0.00,,,0.00,Wunderground v.1.15,2013-06-13 12:10:00,
2013-06-13 08:13:00,75.9,75.0,29.76,South,173,0.0,0.0,97,0.00,,,0.00,Wunderground v.1.15,2013-06-13 12:13:00,
2013-06-13 08:15:00,76.2,75.3,29.76,South,173,0.0,0.0,97,0.00,,,0.00,Wunderground v.1.15,2013-06-13 12:15:00,
2013-06-13 08:17:00,76.3,75.4,29.76,South,173,0.0,0.0,97,0.00,,,0.00,Wunderground v.1.15,2013-06-13 12:17:00,
2013-06-13 08:18:00,76.4,75.2,29.76,South,172,0.0,0.0,96,0.00,,,0.00,Wunderground v.1.15,2013-06-13 12:18:00,
2013-06-13 08:20:00,76.6,75.4,29.76,South,172,0.0,0.0,96,0.00,,,0.00,Wunderground v.1.15,2013-06-13 12:20:00,
2013-06-13 08:22:00,77.0,75.8,29.76,South,172,0.0,0.0,96,0.00,,,0.00,Wunderground v.1.15,2013-06-13 12:22:00,
2013-06-13 08:23:00,77.1,75.9,29.76,South,172,0.0,0.0,96,0.00,,,0.00,Wunderground v.1.15,2013-06-13 12:23:00,
2013-06-13 08:24:00,77.2,75.7,29.76,South,172,0.0,0.0,95,0.00,,,0.00,Wunderground v.1.15,2013-06-13 12:24:00,
2013-06-13 08:28:00,77.8,75.9,29.76,South,172,0.0,0.0,94,0.00,,,0.00,Wunderground v.1.15,2013-06-13 12:28:00,
2013-06-13 08:30:00,78.0,76.1,29.76,South,172,0.0,0.0,94,0.00,,,0.00,Wunderground v.1.15,2013-06-13 12:30:00,
2013-06-13 08:31:00,78.1,76.2,29.76,South,172,0.0,0.0,94,0.00,,,0.00,Wunderground v.1.15,2013-06-13 12:31:00,
2013-06-13 08:32:00,78.2,76.3,29.76,South,172,0.0,0.0,94,0.00,,,0.00,Wunderground v.1.15,2013-06-13 12:32:00,
2013-06-13 08:36:00,78.5,76.3,29.76,South,169,0.0,0.0,93,0.00,,,0.00,Wunderground v.1.15,2013-06-13 12:36:00,
2013-06-13 08:37:00,78.6,76.1,29.75,SSE,167,0.0,0.0,92,0.00,,,0.00,Wunderground v.1.15,2013-06-13 12:37:00,
2013-06-13 08:39:00,78.8,76.3,29.76,South,181,0.0,0.0,92,0.00,,,0.00,Wunderground v.1.15,2013-06-13 12:39:00,
2013-06-13 08:43:00,79.2,76.7,29.75,SW,215,0.0,0.0,92,0.00,,,0.00,Wunderground v.1.15,2013-06-13 12:43:00,
2013-06-13 08:45:00,79.4,76.9,29.75,SW,215,0.0,0.0,92,0.00,,,0.00,Wunderground v.1.15,2013-06-13 12:45:00,
2013-06-13 08:46:00,79.4,76.9,29.75,SW,217,0.0,0.0,92,0.00,,,0.00,Wunderground v.1.15,2013-06-13 12:46:00,
2013-06-13 08:47:00,79.5,76.6,29.75,SW,217,0.0,0.0,91,0.00,,,0.00,Wunderground v.1.15,2013-06-13 12:47:00,
2013-06-13 08:48:00,79.6,76.7,29.75,SW,215,0.0,0.0,91,0.00,,,0.00,Wunderground v.1.15,2013-06-13 12:48:00,
2013-06-13 08:50:00,79.7,76.5,29.75,SW,215,0.0,0.0,90,0.00,,,0.00,Wunderground v.1.15,2013-06-13 12:50:00,
2013-06-13 08:51:00,79.7,76.5,29.75,SW,215,0.0,0.0,90,0.00,,,0.00,Wunderground v.1.15,2013-06-13 12:51:00,
2013-06-13 08:52:00,79.8,76.6,29.75,SW,215,0.0,0.0,90,0.00,,,0.00,Wunderground v.1.15,2013-06-13 12:52:00,
2013-06-13 08:54:00,79.9,76.7,29.76,SW,215,0.0,0.0,90,0.00,,,0.00,Wunderground v.1.15,2013-06-13 12:54:00,
2013-06-13 08:57:00,80.0,76.8,29.75,SW,215,0.0,0.0,90,0.00,,,0.00,Wunderground v.1.15,2013-06-13 12:57:00,
2013-06-13 08:58:00,80.1,76.9,29.75,SW,215,0.0,0.0,90,0.00,,,0.00,Wunderground v.1.15,2013-06-13 12:58:00,
2013-06-13 09:00:00,80.1,76.6,29.75,SW,215,0.0,0.0,89,0.00,,,0.00,Wunderground v.1.15,2013-06-13 13:00:00,
2013-06-13 09:02:00,80.2,77.0,29.75,SW,215,0.0,0.0,90,0.00,,,0.00,Wunderground v.1.15,2013-06-13 13:02:00,
2013-06-13 09:03:00,80.2,77.0,29.75,SW,215,0.0,0.0,90,0.00,,,0.00,Wunderground v.1.15,2013-06-13 13:03:00,
2013-06-13 09:04:00,80.2,77.0,29.75,SW,215,0.0,0.0,90,0.00,,,0.00,Wunderground v.1.15,2013-06-13 13:04:00,
2013-06-13 09:07:00,80.4,76.9,29.75,SW,215,0.0,0.0,89,0.00,,,0.00,Wunderground v.1.15,2013-06-13 13:07:00,
2013-06-13 09:09:00,80.4,76.9,29.75,SW,216,0.0,0.0,89,0.00,,,0.00,Wunderground v.1.15,2013-06-13 13:09:00,
2013-06-13 09:10:00,80.5,76.6,29.75,SW,215,0.0,0.0,88,0.00,,,0.00,Wunderground v.1.15,2013-06-13 13:10:00,
2013-06-13 09:11:00,80.5,76.6,29.75,SW,215,0.0,0.0,88,0.00,,,0.00,Wunderground v.1.15,2013-06-13 13:11:00,
2013-06-13 09:13:00,80.7,76.8,29.75,SW,216,0.0,0.0,88,0.00,,,0.00,Wunderground v.1.15,2013-06-13 13:13:00,
2013-06-13 09:16:00,80.9,76.7,29.75,SW,215,0.0,0.0,87,0.00,,,0.00,Wunderground v.1.15,2013-06-13 13:16:00,
2013-06-13 09:17:00,81.0,76.8,29.75,SW,215,0.0,0.0,87,0.00,,,0.00,Wunderground v.1.15,2013-06-13 13:17:00,
2013-06-13 09:18:00,81.1,76.9,29.75,SW,215,0.0,0.0,87,0.00,,,0.00,Wunderground v.1.15,2013-06-13 13:18:00,
2013-06-13 09:20:00,81.2,77.0,29.75,SW,215,0.0,0.0,87,0.00,,,0.00,Wunderground v.1.15,2013-06-13 13:20:00,
2013-06-13 09:21:00,81.3,77.1,29.75,SW,215,0.0,0.0,87,0.00,,,0.00,Wunderground v.1.15,2013-06-13 13:21:00,
2013-06-13 09:22:00,81.4,77.2,29.75,SW,215,0.0,0.0,87,0.00,,,0.00,Wunderground v.1.15,2013-06-13 13:22:00,
2013-06-13 09:24:00,81.6,76.6,29.75,SW,214,0.0,0.0,85,0.00,,,0.00,Wunderground v.1.15,2013-06-13 13:24:00,
2013-06-13 09:26:00,81.8,77.2,29.75,SW,214,0.0,0.0,86,0.00,,,0.00,Wunderground v.1.15,2013-06-13 13:26:00,
2013-06-13 09:27:00,81.9,77.3,29.75,SW,214,0.0,0.0,86,0.00,,,0.00,Wunderground v.1.15,2013-06-13 13:27:00,
2013-06-13 09:28:00,82.0,77.4,29.75,SW,214,0.0,0.0,86,0.00,,,0.00,Wunderground v.1.15,2013-06-13 13:28:00,
2013-06-13 09:29:00,82.0,77.4,29.75,SW,214,0.0,0.0,86,0.00,,,0.00,Wunderground v.1.15,2013-06-13 13:29:00,
2013-06-13 09:30:00,82.1,77.1,29.75,SW,214,0.0,0.0,85,0.00,,,0.00,Wunderground v.1.15,2013-06-13 13:30:00,
2013-06-13 09:32:00,82.2,77.2,29.75,SW,214,0.0,0.0,85,0.00,,,0.00,Wunderground v.1.15,2013-06-13 13:32:00,
2013-06-13 09:34:00,82.3,77.3,29.75,SW,214,0.0,0.0,85,0.00,,,0.00,Wunderground v.1.15,2013-06-13 13:34:00,
2013-06-13 09:37:00,82.4,76.7,29.75,SW,214,0.0,0.0,83,0.00,,,0.00,Wunderground v.1.15,2013-06-13 13:37:00,
2013-06-13 09:40:00,82.6,76.9,29.75,SW,214,0.0,0.0,83,0.00,,,0.00,Wunderground v.1.15,2013-06-13 13:40:00,
2013-06-13 09:41:00,82.7,77.4,29.75,SW,214,0.0,0.0,84,0.00,,,0.00,Wunderground v.1.15,2013-06-13 13:41:00,
2013-06-13 09:44:00,82.9,76.8,29.75,SW,214,0.0,0.0,82,0.00,,,0.00,Wunderground v.1.15,2013-06-13 13:44:00,
2013-06-13 09:46:00,83.0,76.6,29.75,ESE,120,0.0,0.0,81,0.00,,,0.00,Wunderground v.1.15,2013-06-13 13:46:00,
2013-06-13 09:47:00,83.2,76.8,29.75,ESE,120,0.0,0.0,81,0.00,,,0.00,Wunderground v.1.15,2013-06-13 13:47:00,
2013-06-13 09:49:00,83.4,76.6,29.75,ESE,114,0.0,0.0,80,0.00,,,0.00,Wunderground v.1.15,2013-06-13 13:49:00,
2013-06-13 09:53:00,83.8,77.0,29.75,East,82,0.0,0.0,80,0.00,,,0.00,Wunderground v.1.15,2013-06-13 13:53:00,
2013-06-13 09:56:00,84.0,77.2,29.75,East,79,0.0,0.0,80,0.00,,,0.00,Wunderground v.1.15,2013-06-13 13:56:00,
2013-06-13 09:58:00,84.1,76.9,29.75,East,79,0.0,0.0,79,0.00,,,0.00,Wunderground v.1.15,2013-06-13 13:58:00,
2013-06-13 09:59:00,84.2,77.0,29.75,East,79,0.0,0.0,79,0.00,,,0.00,Wunderground v.1.15,2013-06-13 13:59:00,
2013-06-13 10:00:00,84.3,77.1,29.75,East,79,0.0,0.0,79,0.00,,,0.00,Wunderground v.1.15,2013-06-13 14:00:00,
2013-06-13 10:04:00,84.6,77.4,29.75,SSW,201,0.0,0.0,79,0.00,,,0.00,Wunderground v.1.15,2013-06-13 14:04:00,
2013-06-13 10:06:00,84.8,77.6,29.75,SSW,201,0.0,0.0,79,0.00,,,0.00,Wunderground v.1.15,2013-06-13 14:06:00,
2013-06-13 10:07:00,84.9,77.7,29.74,SSW,201,0.0,0.0,79,0.00,,,0.00,Wunderground v.1.15,2013-06-13 14:07:00,
2013-06-13 10:09:00,85.0,77.8,29.74,East,91,0.0,0.0,79,0.00,,,0.00,Wunderground v.1.15,2013-06-13 14:09:00,
2013-06-13 10:12:00,85.2,76.8,29.74,East,90,0.0,0.0,76,0.00,,,0.00,Wunderground v.1.15,2013-06-13 14:12:00,
2013-06-13 10:13:00,85.3,76.9,29.74,East,91,0.0,0.0,76,0.00,,,0.00,Wunderground v.1.15,2013-06-13 14:13:00,
2013-06-13 10:15:00,85.5,77.5,29.74,East,90,0.0,0.0,77,0.00,,,0.00,Wunderground v.1.15,2013-06-13 14:15:00,
2013-06-13 10:17:00,85.7,77.7,29.74,East,91,0.0,0.0,77,0.00,,,0.00,Wunderground v.1.15,2013-06-13 14:17:00,
2013-06-13 10:18:00,85.7,77.7,29.74,East,90,0.0,0.0,77,0.00,,,0.00,Wunderground v.1.15,2013-06-13 14:18:00,
2013-06-13 10:19:00,85.8,77.8,29.74,East,91,0.0,0.0,77,0.00,,,0.00,Wunderground v.1.15,2013-06-13 14:19:00,
2013-06-13 10:23:00,86.0,77.5,29.74,East,92,0.0,0.0,76,0.00,,,0.00,Wunderground v.1.15,2013-06-13 14:23:00,
2013-06-13 10:24:00,86.1,77.6,29.74,East,92,0.0,0.0,76,0.00,,,0.00,Wunderground v.1.15,2013-06-13 14:24:00,
2013-06-13 10:25:00,86.2,77.7,29.74,East,94,0.0,0.0,76,0.00,,,0.00,Wunderground v.1.15,2013-06-13 14:25:00,
2013-06-13 10:26:00,86.2,77.7,29.74,East,94,0.0,0.0,76,0.00,,,0.00,Wunderground v.1.15,2013-06-13 14:26:00,
2013-06-13 10:30:00,86.5,77.6,29.74,East,100,0.0,0.0,75,0.00,,,0.00,Wunderground v.1.15,2013-06-13 14:30:00,
2013-06-13 10:31:00,86.5,77.6,29.74,East,100,0.0,0.0,75,0.00,,,0.00,Wunderground v.1.15,2013-06-13 14:31:00,
2013-06-13 10:32:00,86.6,78.1,29.74,East,100,0.0,0.0,76,0.00,,,0.00,Wunderground v.1.15,2013-06-13 14:32:00,
2013-06-13 10:33:00,86.6,77.7,29.74,East,98,0.0,0.0,75,0.00,,,0.00,Wunderground v.1.15,2013-06-13 14:33:00,
2013-06-13 10:37:00,86.9,78.4,29.74,SE,125,0.0,0.0,76,0.00,,,0.00,Wunderground v.1.15,2013-06-13 14:37:00,
2013-06-13 10:38:00,87.0,78.5,29.74,SE,125,0.0,0.0,76,0.00,,,0.00,Wunderground v.1.15,2013-06-13 14:38:00,
2013-06-13 10:39:00,87.0,78.5,29.74,SE,129,0.0,0.0,76,0.00,,,0.00,Wunderground v.1.15,2013-06-13 14:39:00,
2013-06-13 10:40:00,87.0,77.3,29.74,SE,128,0.0,0.0,73,0.00,,,0.00,Wunderground v.1.15,2013-06-13 14:40:00,
2013-06-13 10:44:00,87.3,78.4,29.74,SE,129,0.0,0.0,75,0.00,,,0.00,Wunderground v.1.15,2013-06-13 14:44:00,
2013-06-13 10:46:00,87.3,78.0,29.74,East,101,0.0,0.0,74,0.00,,,0.00,Wunderground v.1.15,2013-06-13 14:46:00,
2013-06-13 10:47:00,87.4,78.1,29.74,ESE,103,0.0,0.0,74,0.00,,,0.00,Wunderground v.1.15,2013-06-13 14:47:00,
2013-06-13 10:50:00,87.6,77.5,29.74,ENE,68,0.0,0.0,72,0.00,,,0.00,Wunderground v.1.15,2013-06-13 14:50:00,
2013-06-13 10:52:00,87.9,77.3,29.74,East,84,0.0,0.0,71,0.00,,,0.00,Wunderground v.1.15,2013-06-13 14:52:00,
2013-06-13 10:53:00,87.9,77.3,29.74,East,84,0.0,0.0,71,0.00,,,0.00,Wunderground v.1.15,2013-06-13 14:53:00,
2013-06-13 10:54:00,88.0,77.4,29.74,East,84,0.0,0.0,71,0.00,,,0.00,Wunderground v.1.15,2013-06-13 14:54:00,
2013-06-13 10:56:00,88.2,77.6,29.74,East,84,0.0,0.0,71,0.00,,,0.00,Wunderground v.1.15,2013-06-13 14:56:00,
2013-06-13 10:59:00,88.5,76.6,29.74,East,80,0.0,0.0,68,0.00,,,0.00,Wunderground v.1.15,2013-06-13 14:59:00,
2013-06-13 11:00:00,88.6,76.7,29.74,East,81,0.0,0.0,68,0.00,,,0.00,Wunderground v.1.15,2013-06-13 15:00:00,
2013-06-13 11:02:00,88.7,77.7,29.74,East,80,0.0,1.0,70,0.00,,,0.00,Wunderground v.1.15,2013-06-13 15:02:00,
2013-06-13 11:05:00,88.8,77.7,29.73,East,80,0.0,1.0,70,0.00,,,0.00,Wunderground v.1.15,2013-06-13 15:05:00,
2013-06-13 11:06:00,88.8,77.7,29.73,East,80,0.0,1.0,70,0.00,,,0.00,Wunderground v.1.15,2013-06-13 15:06:00,
2013-06-13 11:07:00,88.9,77.8,29.73,East,80,0.0,1.0,70,0.00,,,0.00,Wunderground v.1.15,2013-06-13 15:07:00,
2013-06-13 11:11:00,89.3,76.9,29.73,SSE,156,0.0,0.0,67,0.00,,,0.00,Wunderground v.1.15,2013-06-13 15:11:00,
2013-06-13 11:13:00,89.5,77.1,29.73,SSE,156,0.0,0.0,67,0.00,,,0.00,Wunderground v.1.15,2013-06-13 15:13:00,
2013-06-13 11:15:00,89.7,77.3,29.73,SSE,158,0.0,0.0,67,0.00,,,0.00,Wunderground v.1.15,2013-06-13 15:15:00,
2013-06-13 11:17:00,89.9,76.6,29.73,SSE,148,0.0,0.0,65,0.00,,,0.00,Wunderground v.1.15,2013-06-13 15:17:00,
2013-06-13 11:22:00,90.1,76.7,29.72,SSW,193,0.0,0.0,65,0.00,,,0.00,Wunderground v.1.15,2013-06-13 15:22:00,
2013-06-13 11:24:00,90.2,76.8,29.72,SSW,194,0.0,0.0,65,0.00,,,0.00,Wunderground v.1.15,2013-06-13 15:24:00,
2013-06-13 11:25:00,90.3,76.9,29.72,SSW,194,0.0,0.0,65,0.00,,,0.00,Wunderground v.1.15,2013-06-13 15:25:00,
2013-06-13 11:27:00,90.5,77.6,29.72,East,80,0.0,0.0,66,0.00,,,0.00,Wunderground v.1.15,2013-06-13 15:27:00,
2013-06-13 11:28:00,90.6,78.1,29.72,East,80,0.0,0.0,67,0.00,,,0.00,Wunderground v.1.15,2013-06-13 15:28:00,
2013-06-13 11:30:00,90.7,77.8,29.72,North,10,0.0,0.0,66,0.00,,,0.00,Wunderground v.1.15,2013-06-13 15:30:00,
2013-06-13 11:31:00,90.7,78.2,29.72,NE,47,0.0,0.0,67,0.00,,,0.00,Wunderground v.1.15,2013-06-13 15:31:00,
2013-06-13 18:23:00,69.8,67.7,29.63,NE,50,0.0,0.0,93,0.00,,,0.19,Wunderground v.1.15,2013-06-13 22:23:00,
2013-06-13 18:24:00,69.8,67.7,29.62,NE,50,0.0,0.0,93,0.00,,,0.19,Wunderground v.1.15,2013-06-13 22:24:00,
2013-06-13 21:00:00,69.6,68.4,29.67,East,84,0.0,1.0,96,0.00,,,0.20,Wunderground v.1.15,2013-06-14 01:00:00,
2013-06-13 21:01:00,69.5,68.3,29.67,East,84,0.0,1.0,96,0.00,,,0.20,Wunderground v.1.15,2013-06-14 01:01:00,
2013-06-13 21:02:00,69.5,68.3,29.67,East,84,0.0,1.0,96,0.00,,,0.20,Wunderground v.1.15,2013-06-14 01:02:00,
2013-06-13 21:04:00,69.5,68.3,29.67,East,85,0.0,1.0,96,0.00,,,0.20,Wunderground v.1.15,2013-06-14 01:04:00,
2013-06-13 21:06:00,69.5,68.3,29.67,East,85,0.0,1.0,96,0.00,,,0.20,Wunderground v.1.15,2013-06-14 01:06:00,
2013-06-13 21:07:00,69.4,68.2,29.67,East,84,0.0,1.0,96,0.00,,,0.20,Wunderground v.1.15,2013-06-14 01:07:00,
2013-06-13 21:11:00,69.4,68.2,29.66,East,84,0.0,0.0,96,0.00,,,0.20,Wunderground v.1.15,2013-06-14 01:11:00,
2013-06-13 21:12:00,69.4,68.2,29.66,East,84,0.0,0.0,96,0.00,,,0.20,Wunderground v.1.15,2013-06-14 01:12:00,
2013-06-13 21:13:00,69.4,68.2,29.66,East,85,0.0,0.0,96,0.00,,,0.20,Wunderground v.1.15,2013-06-14 01:13:00,
2013-06-13 21:16:00,69.4,68.2,29.67,East,85,0.0,0.0,96,0.00,,,0.20,Wunderground v.1.15,2013-06-14 01:16:00,
2013-06-13 21:17:00,69.3,68.1,29.67,East,84,0.0,0.0,96,0.00,,,0.20,Wunderground v.1.15,2013-06-14 01:17:00,
2013-06-13 21:19:00,69.3,68.1,29.67,East,84,0.0,0.0,96,0.00,,,0.20,Wunderground v.1.15,2013-06-14 01:19:00,
2013-06-13 21:21:00,69.3,68.1,29.67,East,85,0.0,0.0,96,0.00,,,0.20,Wunderground v.1.15,2013-06-14 01:21:00,
2013-06-13 21:22:00,69.3,68.1,29.67,East,85,0.0,0.0,96,0.00,,,0.20,Wunderground v.1.15,2013-06-14 01:22:00,
2013-06-13 21:26:00,69.2,68.0,29.66,East,85,0.0,0.0,96,0.00,,,0.20,Wunderground v.1.15,2013-06-14 01:26:00,
2013-06-13 21:28:00,69.2,68.0,29.66,East,85,0.0,0.0,96,0.00,,,0.20,Wunderground v.1.15,2013-06-14 01:28:00,
2013-06-13 21:29:00,69.2,68.0,29.66,East,85,0.0,0.0,96,0.00,,,0.20,Wunderground v.1.15,2013-06-14 01:29:00,
2013-06-13 21:31:00,69.1,67.9,29.66,East,85,0.0,0.0,96,0.00,,,0.20,Wunderground v.1.15,2013-06-14 01:31:00,
2013-06-13 21:33:00,69.1,67.9,29.66,East,84,0.0,0.0,96,0.00,,,0.20,Wunderground v.1.15,2013-06-14 01:33:00,
2013-06-13 21:34:00,69.1,67.9,29.66,East,84,0.0,0.0,96,0.00,,,0.20,Wunderground v.1.15,2013-06-14 01:34:00,
2013-06-13 21:35:00,69.0,67.8,29.66,East,85,0.0,0.0,96,0.00,,,0.20,Wunderground v.1.15,2013-06-14 01:35:00,
2013-06-13 21:36:00,69.0,67.8,29.66,East,84,0.0,0.0,96,0.00,,,0.20,Wunderground v.1.15,2013-06-14 01:36:00,
2013-06-13 21:38:00,69.0,67.8,29.66,East,84,0.0,0.0,96,0.00,,,0.20,Wunderground v.1.15,2013-06-14 01:38:00,
2013-06-13 21:40:00,69.0,67.8,29.66,East,85,0.0,0.0,96,0.00,,,0.20,Wunderground v.1.15,2013-06-14 01:40:00,
2013-06-13 21:41:00,69.0,67.8,29.66,East,84,0.0,0.0,96,0.00,,,0.20,Wunderground v.1.15,2013-06-14 01:41:00,
2013-06-13 21:45:00,69.0,67.8,29.66,East,84,0.0,0.0,96,0.00,,,0.20,Wunderground v.1.15,2013-06-14 01:45:00,
2013-06-13 21:46:00,68.9,67.7,29.66,East,84,0.0,0.0,96,0.00,,,0.20,Wunderground v.1.15,2013-06-14 01:46:00,
2013-06-13 21:47:00,68.9,67.7,29.66,East,85,0.0,0.0,96,0.00,,,0.20,Wunderground v.1.15,2013-06-14 01:47:00,
2013-06-13 21:48:00,68.9,67.7,29.66,East,85,0.0,0.0,96,0.00,,,0.20,Wunderground v.1.15,2013-06-14 01:48:00,
2013-06-13 21:52:00,68.9,67.7,29.67,East,84,0.0,0.0,96,0.00,,,0.20,Wunderground v.1.15,2013-06-14 01:52:00,
2013-06-13 21:53:00,68.9,67.7,29.67,East,84,0.0,0.0,96,0.00,,,0.20,Wunderground v.1.15,2013-06-14 01:53:00,
2013-06-13 21:54:00,68.8,67.6,29.66,East,84,0.0,0.0,96,0.00,,,0.20,Wunderground v.1.15,2013-06-14 01:54:00,
2013-06-13 21:57:00,68.8,67.6,29.66,East,84,0.0,0.0,96,0.00,,,0.20,Wunderground v.1.15,2013-06-14 01:57:00,
2013-06-13 21:58:00,68.8,67.6,29.67,East,84,0.0,0.0,96,0.00,,,0.20,Wunderground v.1.15,2013-06-14 01:58:00,
2013-06-13 21:59:00,68.8,67.6,29.67,East,84,0.0,0.0,96,0.00,,,0.20,Wunderground v.1.15,2013-06-14 01:59:00,
2013-06-13 22:01:00,68.8,67.6,29.67,East,84,0.0,0.0,96,0.00,,,0.20,Wunderground v.1.15,2013-06-14 02:01:00,
2013-06-13 22:03:00,68.7,67.5,29.67,East,84,0.0,0.0,96,0.00,,,0.20,Wunderground v.1.15,2013-06-14 02:03:00,
2013-06-13 22:04:00,68.7,67.5,29.67,East,85,0.0,0.0,96,0.00,,,0.20,Wunderground v.1.15,2013-06-14 02:04:00,
2013-06-13 22:05:00,68.7,67.5,29.67,East,84,0.0,0.0,96,0.00,,,0.20,Wunderground v.1.15,2013-06-14 02:05:00,
2013-06-13 22:07:00,68.7,67.5,29.67,East,84,0.0,0.0,96,0.00,,,0.20,Wunderground v.1.15,2013-06-14 02:07:00,
2013-06-13 22:10:00,68.7,67.5,29.67,East,84,0.0,0.0,96,0.00,,,0.20,Wunderground v.1.15,2013-06-14 02:10:00,
2013-06-13 22:11:00,68.7,67.5,29.68,East,85,0.0,0.0,96,0.00,,,0.20,Wunderground v.1.15,2013-06-14 02:11:00,
2013-06-13 22:14:00,68.7,67.5,29.68,East,84,0.0,0.0,96,0.00,,,0.20,Wunderground v.1.15,2013-06-14 02:14:00,
2013-06-13 22:17:00,68.7,67.5,29.68,East,85,0.0,0.0,96,0.00,,,0.20,Wunderground v.1.15,2013-06-14 02:17:00,
2013-06-13 22:19:00,68.7,67.5,29.68,East,85,0.0,0.0,96,0.00,,,0.20,Wunderground v.1.15,2013-06-14 02:19:00,
2013-06-13 22:20:00,68.6,67.4,29.68,East,85,0.0,0.0,96,0.00,,,0.20,Wunderground v.1.15,2013-06-14 02:20:00,
2013-06-13 22:23:00,68.6,67.4,29.69,East,84,0.0,0.0,96,0.00,,,0.20,Wunderground v.1.15,2013-06-14 02:23:00,
2013-06-13 22:24:00,68.6,67.4,29.69,East,85,0.0,0.0,96,0.00,,,0.20,Wunderground v.1.15,2013-06-14 02:24:00,
2013-06-13 22:25:00,68.6,67.4,29.69,East,85,0.0,0.0,96,0.00,,,0.20,Wunderground v.1.15,2013-06-14 02:25:00,
2013-06-13 22:29:00,68.6,67.4,29.69,East,85,0.0,0.0,96,0.00,,,0.20,Wunderground v.1.15,2013-06-14 02:29:00,
2013-06-13 22:30:00,68.6,67.4,29.69,East,85,0.0,0.0,96,0.00,,,0.20,Wunderground v.1.15,2013-06-14 02:30:00,
2013-06-13 22:31:00,68.6,67.4,29.69,East,85,0.0,0.0,96,0.00,,,0.20,Wunderground v.1.15,2013-06-14 02:31:00,
2013-06-13 22:34:00,68.6,67.4,29.69,East,85,0.0,0.0,96,0.00,,,0.20,Wunderground v.1.15,2013-06-14 02:34:00,
2013-06-13 22:35:00,68.5,67.3,29.69,East,85,0.0,0.0,96,0.00,,,0.20,Wunderground v.1.15,2013-06-14 02:35:00,
2013-06-13 22:36:00,68.5,67.3,29.69,East,85,0.0,0.0,96,0.00,,,0.20,Wunderground v.1.15,2013-06-14 02:36:00,
2013-06-13 22:38:00,68.5,67.3,29.70,East,85,0.0,0.0,96,0.00,,,0.20,Wunderground v.1.15,2013-06-14 02:38:00,
2013-06-13 22:39:00,68.5,67.3,29.70,East,85,0.0,0.0,96,0.00,,,0.20,Wunderground v.1.15,2013-06-14 02:39:00,
2013-06-13 22:41:00,68.5,67.3,29.70,East,84,0.0,0.0,96,0.00,,,0.20,Wunderground v.1.15,2013-06-14 02:41:00,
2013-06-13 22:42:00,68.5,67.3,29.70,East,85,0.0,0.0,96,0.00,,,0.20,Wunderground v.1.15,2013-06-14 02:42:00,
2013-06-13 22:43:00,68.5,67.3,29.70,East,84,0.0,0.0,96,0.00,,,0.20,Wunderground v.1.15,2013-06-14 02:43:00,
2013-06-13 22:45:00,68.4,67.2,29.70,East,84,0.0,0.0,96,0.00,,,0.20,Wunderground v.1.15,2013-06-14 02:45:00,
2013-06-13 22:46:00,68.4,67.2,29.70,East,85,0.0,0.0,96,0.00,,,0.20,Wunderground v.1.15,2013-06-14 02:46:00,
2013-06-13 22:48:00,68.4,67.2,29.70,East,84,0.0,0.0,96,0.00,,,0.20,Wunderground v.1.15,2013-06-14 02:48:00,
2013-06-13 22:49:00,68.4,67.2,29.70,East,84,0.0,0.0,96,0.00,,,0.20,Wunderground v.1.15,2013-06-14 02:49:00,
2013-06-13 22:51:00,68.4,67.2,29.70,East,85,0.0,0.0,96,0.00,,,0.20,Wunderground v.1.15,2013-06-14 02:51:00,
2013-06-13 22:53:00,68.4,67.2,29.70,East,84,0.0,0.0,96,0.00,,,0.20,Wunderground v.1.15,2013-06-14 02:53:00,
2013-06-13 22:54:00,68.4,67.2,29.70,East,84,0.0,0.0,96,0.00,,,0.20,Wunderground v.1.15,2013-06-14 02:54:00,
2013-06-13 22:55:00,68.4,67.2,29.70,East,85,0.0,0.0,96,0.00,,,0.20,Wunderground v.1.15,2013-06-14 02:55:00,
2013-06-13 22:58:00,68.4,67.5,29.70,East,84,0.0,0.0,97,0.00,,,0.20,Wunderground v.1.15,2013-06-14 02:58:00,
2013-06-13 23:00:00,68.4,67.5,29.70,East,85,0.0,0.0,97,0.00,,,0.20,Wunderground v.1.15,2013-06-14 03:00:00,
2013-06-13 23:01:00,68.4,67.5,29.70,East,84,0.0,0.0,97,0.00,,,0.20,Wunderground v.1.15,2013-06-14 03:01:00,
2013-06-13 23:02:00,68.4,67.5,29.70,East,85,0.0,0.0,97,0.00,,,0.20,Wunderground v.1.15,2013-06-14 03:02:00,
2013-06-13 23:04:00,68.4,67.5,29.69,East,85,0.0,0.0,97,0.00,,,0.20,Wunderground v.1.15,2013-06-14 03:04:00,
2013-06-13 23:05:00,68.4,67.2,29.69,East,84,0.0,0.0,96,0.00,,,0.20,Wunderground v.1.15,2013-06-14 03:05:00,
2013-06-13 23:07:00,68.3,67.1,29.70,East,85,0.0,0.0,96,0.00,,,0.20,Wunderground v.1.15,2013-06-14 03:07:00,
2013-06-13 23:09:00,68.3,67.4,29.70,East,85,0.0,0.0,97,0.00,,,0.20,Wunderground v.1.15,2013-06-14 03:09:00,
2013-06-13 23:10:00,68.3,67.4,29.69,East,85,0.0,0.0,97,0.00,,,0.20,Wunderground v.1.15,2013-06-14 03:10:00,
2013-06-13 23:13:00,68.3,67.4,29.70,East,84,0.0,0.0,97,0.00,,,0.20,Wunderground v.1.15,2013-06-14 03:13:00,
2013-06-13 23:15:00,68.3,67.1,29.70,East,85,0.0,0.0,96,0.00,,,0.20,Wunderground v.1.15,2013-06-14 03:15:00,
2013-06-13 23:18:00,68.2,67.3,29.70,East,85,0.0,0.0,97,0.00,,,0.20,Wunderground v.1.15,2013-06-14 03:18:00,
2013-06-13 23:19:00,68.2,67.3,29.70,East,85,0.0,0.0,97,0.00,,,0.20,Wunderground v.1.15,2013-06-14 03:19:00,
2013-06-13 23:21:00,68.2,67.3,29.70,East,85,0.0,0.0,97,0.00,,,0.20,Wunderground v.1.15,2013-06-14 03:21:00,
2013-06-13 23:24:00,68.2,67.3,29.70,East,85,0.0,0.0,97,0.00,,,0.20,Wunderground v.1.15,2013-06-14 03:24:00,
2013-06-13 23:26:00,68.2,67.3,29.71,East,84,0.0,0.0,97,0.00,,,0.20,Wunderground v.1.15,2013-06-14 03:26:00,
2013-06-13 23:28:00,68.2,67.3,29.71,East,85,0.0,0.0,97,0.00,,,0.20,Wunderground v.1.15,2013-06-14 03:28:00,
2013-06-13 23:31:00,68.2,67.3,29.71,East,84,0.0,0.0,97,0.00,,,0.20,Wunderground v.1.15,2013-06-14 03:31:00,
2013-06-13 23:34:00,68.2,67.3,29.71,East,84,0.0,0.0,97,0.00,,,0.20,Wunderground v.1.15,2013-06-14 03:34:00,
2013-06-13 23:35:00,68.2,67.3,29.71,East,85,0.0,0.0,97,0.00,,,0.20,Wunderground v.1.15,2013-06-14 03:35:00,
2013-06-13 23:36:00,68.2,67.3,29.71,East,85,0.0,0.0,97,0.00,,,0.20,Wunderground v.1.15,2013-06-14 03:36:00,
2013-06-13 23:37:00,68.2,67.3,29.71,East,85,0.0,0.0,97,0.00,,,0.20,Wunderground v.1.15,2013-06-14 03:37:00,
2013-06-13 23:38:00,68.2,67.3,29.71,East,84,0.0,0.0,97,0.00,,,0.20,Wunderground v.1.15,2013-06-14 03:38:00,
2013-06-13 23:43:00,68.2,67.3,29.71,East,85,0.0,0.0,97,0.00,,,0.20,Wunderground v.1.15,2013-06-14 03:43:00,
2013-06-13 23:44:00,68.2,67.3,29.71,East,81,0.0,0.0,97,0.00,,,0.20,Wunderground v.1.15,2013-06-14 03:44:00,
2013-06-13 23:46:00,68.2,67.3,29.71,East,82,0.0,0.0,97,0.00,,,0.20,Wunderground v.1.15,2013-06-14 03:46:00,
2013-06-13 23:49:00,68.2,67.3,29.71,East,80,0.0,0.0,97,0.00,,,0.20,Wunderground v.1.15,2013-06-14 03:49:00,
2013-06-13 23:50:00,68.2,67.3,29.72,East,81,0.0,0.0,97,0.00,,,0.20,Wunderground v.1.15,2013-06-14 03:50:00,
2013-06-13 23:51:00,68.2,67.3,29.72,East,81,0.0,0.0,97,0.00,,,0.20,Wunderground v.1.15,2013-06-14 03:51:00,
2013-06-13 23:52:00,68.2,67.3,29.72,East,80,0.0,0.0,97,0.00,,,0.20,Wunderground v.1.15,2013-06-14 03:52:00,
2013-06-13 23:55:00,68.2,67.3,29.72,East,80,0.0,0.0,97,0.00,,,0.20,Wunderground v.1.15,2013-06-14 03:55:00,
2013-06-13 23:57:00,68.2,67.3,29.72,East,81,0.0,0.0,97,0.00,,,0.20,Wunderground v.1.15,2013-06-14 03:57:00,
2013-06-13 23:58:00,68.2,67.3,29.72,East,80,0.0,0.0,97,0.00,,,0.20,Wunderground v.1.15,2013-06-14 03:58:00,